createdAt,value
2019-05-11T00:00:48.462Z,43.08
2019-05-11T00:03:15.790Z,41.13
2019-05-11T00:05:43.015Z,44.05
2019-05-11T00:08:10.251Z,41.10
2019-05-11T00:10:37.518Z,40.80
2019-05-11T00:13:05.944Z,39.03
2019-05-11T00:15:33.319Z,46.37
2019-05-11T00:18:00.717Z,53.00
2019-05-11T00:20:28.001Z,51.53
2019-05-11T00:22:55.592Z,50.65
2019-05-11T00:25:24.564Z,49.80
2019-05-11T00:27:51.793Z,50.73
2019-05-11T00:30:19.037Z,52.67
2019-05-11T00:32:46.295Z,53.52
2019-05-11T00:35:13.621Z,52.67
2019-05-11T00:37:40.851Z,47.98
2019-05-11T00:40:14.487Z,52.75
2019-05-11T00:42:37.144Z,49.93
2019-05-11T00:45:05.112Z,47.38
2019-05-11T00:47:32.415Z,47.73
2019-05-11T00:49:59.639Z,50.10
2019-05-11T00:52:26.921Z,52.20
2019-05-11T00:54:54.228Z,48.63
2019-05-11T00:57:22.435Z,50.95
2019-05-11T00:59:49.663Z,49.08
2019-05-11T01:02:16.956Z,46.83
2019-05-11T01:04:44.191Z,45.45
2019-05-11T01:07:11.713Z,44.73
2019-05-11T01:09:38.974Z,42.53
2019-05-11T01:12:06.208Z,43.80
2019-05-11T01:14:33.567Z,44.33
2019-05-11T01:17:00.862Z,43.58
2019-05-11T01:19:28.273Z,41.00
2019-05-11T01:21:55.514Z,38.98
2019-05-11T01:24:23.225Z,36.85
2019-05-11T01:26:50.952Z,34.33
2019-05-11T01:29:18.210Z,34.78
2019-05-11T01:31:45.549Z,33.23
2019-05-11T01:34:12.791Z,34.48
2019-05-11T01:36:40.062Z,34.27
2019-05-11T01:39:07.401Z,33.58
2019-05-11T01:41:34.603Z,33.67
2019-05-11T01:44:01.846Z,34.23
2019-05-11T01:46:29.150Z,37.90
2019-05-11T01:48:56.380Z,45.73
2019-05-11T01:51:23.605Z,44.53
2019-05-11T01:53:51.172Z,42.33
2019-05-11T01:56:18.412Z,42.23
2019-05-11T01:58:45.629Z,39.88
2019-05-11T02:01:12.905Z,35.75
2019-05-11T02:03:40.153Z,35.03
2019-05-11T02:06:07.375Z,36.17
2019-05-11T02:08:34.677Z,32.88
2019-05-11T02:11:14.981Z,31.77
2019-05-11T02:13:31.489Z,30.55
2019-05-11T02:16:06.548Z,31.28
2019-05-11T02:18:33.770Z,31.68
2019-05-11T02:21:01.101Z,31.37
2019-05-11T02:23:28.383Z,33.70
2019-05-11T02:25:55.614Z,33.85
2019-05-11T02:28:23.088Z,34.30
2019-05-11T02:30:50.374Z,35.00
2019-05-11T02:33:17.611Z,33.28
2019-05-11T02:35:44.824Z,35.63
2019-05-11T02:38:12.147Z,32.83
2019-05-11T02:40:40.379Z,32.28
2019-05-11T02:43:07.654Z,32.08
2019-05-11T02:45:36.739Z,29.77
2019-05-11T02:48:04.002Z,30.00
2019-05-11T02:50:33.228Z,28.92
2019-05-11T02:53:00.890Z,28.98
2019-05-11T02:55:28.108Z,30.35
2019-05-11T02:57:55.367Z,30.43
2019-05-11T03:00:24.461Z,30.10
2019-05-11T03:02:51.709Z,29.57
2019-05-11T03:05:18.935Z,29.67
2019-05-11T03:07:46.236Z,29.07
2019-05-11T03:10:13.450Z,29.55
2019-05-11T03:12:40.696Z,28.87
2019-05-11T03:15:08.016Z,29.70
2019-05-11T03:17:35.256Z,28.87
2019-05-11T03:20:02.513Z,27.90
2019-05-11T03:22:29.865Z,28.12
2019-05-11T03:24:57.101Z,29.02
2019-05-11T03:27:24.308Z,30.68
2019-05-11T03:29:51.856Z,30.60
2019-05-11T03:32:19.097Z,32.08
2019-05-11T03:34:46.314Z,28.52
2019-05-11T03:37:13.582Z,27.73
2019-05-11T03:39:40.841Z,26.15
2019-05-11T03:42:14.464Z,27.90
2019-05-11T03:44:37.176Z,28.27
2019-05-11T03:47:04.470Z,26.37
2019-05-11T03:49:31.728Z,28.57
2019-05-11T03:52:00.699Z,27.22
2019-05-11T03:54:27.933Z,28.47
2019-05-11T03:56:56.147Z,29.15
2019-05-11T03:59:23.433Z,29.60
2019-05-11T04:01:50.668Z,29.15
2019-05-11T04:04:18.900Z,31.00
2019-05-11T04:06:46.197Z,29.02
2019-05-11T04:09:13.440Z,31.45
2019-05-11T04:11:40.793Z,32.13
2019-05-11T04:14:08.099Z,32.35
2019-05-11T04:16:36.331Z,34.60
2019-05-11T04:19:03.614Z,32.98
2019-05-11T04:21:30.875Z,42.17
2019-05-11T04:23:58.117Z,41.85
2019-05-11T04:26:25.375Z,41.65
2019-05-11T04:28:52.687Z,38.05
2019-05-11T04:31:20.207Z,35.03
2019-05-11T04:33:47.451Z,36.00
2019-05-11T04:36:14.710Z,34.23
2019-05-11T04:38:41.929Z,35.80
2019-05-11T04:41:09.170Z,35.52
2019-05-11T04:43:36.543Z,36.28
2019-05-11T04:46:03.753Z,34.40
2019-05-11T04:48:30.991Z,34.48
2019-05-11T04:50:58.307Z,35.65
2019-05-11T04:53:25.526Z,36.68
2019-05-11T04:55:52.752Z,36.40
2019-05-11T04:58:20.107Z,37.80
2019-05-11T05:00:47.358Z,36.42
2019-05-11T05:03:14.586Z,40.65
2019-05-11T05:05:41.918Z,41.28
2019-05-11T05:08:10.041Z,44.38
2019-05-11T05:10:37.370Z,41.13
2019-05-11T05:13:10.711Z,42.78
2019-05-11T05:15:33.744Z,43.55
2019-05-11T05:18:01.042Z,43.42
2019-05-11T05:20:29.135Z,43.92
2019-05-11T05:22:56.629Z,41.83
2019-05-11T05:25:23.946Z,39.75
2019-05-11T05:27:51.563Z,41.77
2019-05-11T05:30:18.791Z,41.33
2019-05-11T05:32:46.451Z,44.58
2019-05-11T05:35:13.740Z,44.93
2019-05-11T05:37:41.362Z,43.83
2019-05-11T05:40:08.577Z,45.38
2019-05-11T05:42:35.872Z,42.73
2019-05-11T05:45:04.296Z,41.45
2019-05-11T05:47:31.535Z,41.42
2019-05-11T05:49:58.816Z,39.05
2019-05-11T05:52:26.397Z,39.60
2019-05-11T05:54:53.960Z,41.80
2019-05-11T05:57:21.233Z,41.08
2019-05-11T05:59:49.482Z,48.30
2019-05-11T06:02:16.716Z,44.67
2019-05-11T06:04:43.996Z,43.20
2019-05-11T06:07:11.225Z,40.17
2019-05-11T06:09:38.472Z,41.13
2019-05-11T06:12:05.772Z,41.53
2019-05-11T06:14:33.000Z,41.25
2019-05-11T06:17:00.239Z,45.20
2019-05-11T06:19:27.532Z,51.90
2019-05-11T06:21:55.214Z,40.10
2019-05-11T06:24:22.430Z,41.02
2019-05-11T06:26:49.771Z,43.23
2019-05-11T06:29:16.993Z,43.83
2019-05-11T06:31:44.220Z,46.33
2019-05-11T06:34:13.165Z,45.43
2019-05-11T06:36:40.378Z,38.92
2019-05-11T06:39:07.953Z,39.80
2019-05-11T06:41:35.769Z,38.92
2019-05-11T06:44:03.892Z,33.10
2019-05-11T06:46:34.522Z,31.57
2019-05-11T06:49:00.246Z,32.85
2019-05-11T06:51:27.462Z,31.93
2019-05-11T06:53:54.759Z,32.25
2019-05-11T06:56:22.118Z,31.42
2019-05-11T06:58:49.424Z,30.90
2019-05-11T07:01:16.663Z,25.10
2019-05-11T07:03:43.962Z,26.07
2019-05-11T07:06:12.860Z,24.85
2019-05-11T07:08:40.103Z,22.82
2019-05-11T07:11:07.394Z,23.00
2019-05-11T07:13:34.672Z,25.48
2019-05-11T07:16:01.935Z,24.55
2019-05-11T07:18:29.261Z,23.15
2019-05-11T07:20:56.471Z,24.12
2019-05-11T07:23:23.724Z,22.60
2019-05-11T07:25:51.028Z,74.70
2019-05-11T07:28:18.273Z,20.25
2019-05-11T07:30:45.789Z,20.15
2019-05-11T07:33:13.056Z,19.30
2019-05-11T07:35:40.790Z,19.50
2019-05-11T07:38:08.402Z,18.67
2019-05-11T07:40:38.311Z,18.67
2019-05-11T07:43:09.014Z,20.40
2019-05-11T07:45:34.184Z,19.95
2019-05-11T07:48:01.442Z,20.45
2019-05-11T07:50:28.683Z,19.02
2019-05-11T07:52:58.684Z,18.20
2019-05-11T07:55:27.995Z,18.48
2019-05-11T07:57:54.696Z,19.52
2019-05-11T08:00:21.921Z,18.17
2019-05-11T08:02:50.707Z,28.32
2019-05-11T08:05:18.182Z,46.30
2019-05-11T08:07:47.946Z,124.47
2019-05-11T08:10:14.565Z,32.42
2019-05-11T08:12:41.788Z,22.87
2019-05-11T08:15:13.327Z,22.35
2019-05-11T08:17:38.215Z,27.37
2019-05-11T08:20:11.023Z,23.04
2019-05-11T08:22:39.706Z,22.80
2019-05-11T08:25:09.009Z,23.00
2019-05-11T08:27:37.846Z,21.10
2019-05-11T08:30:09.655Z,21.25
2019-05-11T08:32:38.666Z,20.95
2019-05-11T08:35:08.579Z,18.67
2019-05-11T08:37:39.203Z,15.95
2019-05-11T08:40:07.844Z,16.07
2019-05-11T08:42:37.669Z,24.75
2019-05-11T08:45:15.938Z,23.87
2019-05-11T08:47:33.515Z,18.60
2019-05-11T08:50:00.775Z,16.10
2019-05-11T08:52:28.289Z,15.65
2019-05-11T08:54:57.623Z,15.93
2019-05-11T08:57:25.021Z,12.65
2019-05-11T08:59:52.304Z,12.80
2019-05-11T09:02:19.552Z,24.12
2019-05-11T09:04:48.364Z,13.10
2019-05-11T09:07:18.278Z,12.73
2019-05-11T09:09:45.066Z,14.43
2019-05-11T09:12:12.394Z,12.43
2019-05-11T09:14:39.726Z,12.33
2019-05-11T09:17:07.839Z,12.03
2019-05-11T09:19:35.336Z,12.05
2019-05-11T09:22:03.287Z,12.15
2019-05-11T09:24:31.708Z,11.83
2019-05-11T09:26:58.968Z,10.63
2019-05-11T09:29:28.136Z,11.95
2019-05-11T09:31:57.627Z,10.82
2019-05-11T09:34:24.895Z,12.07
2019-05-11T09:36:53.405Z,14.47
2019-05-11T09:39:20.927Z,18.35
2019-05-11T09:41:48.853Z,10.88
2019-05-11T09:44:18.214Z,9.98
2019-05-11T09:46:47.634Z,10.53
2019-05-11T09:49:14.431Z,9.48
2019-05-11T09:51:41.791Z,10.28
2019-05-11T09:54:09.092Z,10.90
2019-05-11T09:56:38.261Z,10.18
2019-05-11T09:59:05.807Z,10.85
2019-05-11T10:01:33.248Z,10.55
2019-05-11T10:04:00.698Z,10.70
2019-05-11T10:06:28.289Z,11.10
2019-05-11T10:08:57.727Z,10.82
2019-05-11T10:11:24.747Z,11.38
2019-05-11T10:13:52.366Z,11.12
2019-05-11T10:16:19.589Z,11.33
2019-05-11T10:18:49.113Z,11.88
2019-05-11T10:21:18.547Z,13.60
2019-05-11T10:23:45.007Z,8.68
2019-05-11T10:26:12.235Z,11.65
2019-05-11T10:28:39.581Z,8.70
2019-05-11T10:31:09.345Z,7.42
2019-05-11T10:33:38.218Z,5.97
2019-05-11T10:36:07.921Z,4.00
2019-05-11T10:38:37.792Z,4.45
2019-05-11T10:41:05.674Z,15.10
2019-05-11T10:43:37.557Z,17.40
2019-05-11T10:46:16.117Z,8.40
2019-05-11T10:48:32.741Z,8.50
2019-05-11T10:51:00.562Z,8.43
2019-05-11T10:53:28.900Z,9.13
2019-05-11T10:55:58.185Z,7.65
2019-05-11T10:58:25.236Z,7.60
2019-05-11T11:00:52.908Z,7.90
2019-05-11T11:03:20.458Z,7.67
2019-05-11T11:05:50.020Z,6.83
2019-05-11T11:08:18.638Z,5.95
2019-05-11T11:10:48.183Z,5.20
2019-05-11T11:13:15.156Z,5.85
2019-05-11T11:15:42.897Z,4.37
2019-05-11T11:18:10.141Z,4.42
2019-05-11T11:20:38.427Z,5.10
2019-05-11T11:23:08.895Z,7.50
2019-05-11T11:25:37.611Z,6.67
2019-05-11T11:28:05.395Z,31.07
2019-05-11T11:30:32.789Z,7.12
2019-05-11T11:33:02.605Z,18.12
2019-05-11T11:35:33.273Z,7.60
2019-05-11T11:38:00.616Z,7.05
2019-05-11T11:40:28.864Z,5.87
2019-05-11T11:42:58.109Z,15.78
2019-05-11T11:45:25.541Z,9.75
2019-05-11T11:47:53.266Z,9.28
2019-05-11T11:50:22.392Z,3.87
2019-05-11T11:52:49.700Z,3.20
2019-05-11T11:55:18.550Z,3.52
2019-05-11T11:57:48.467Z,3.85
2019-05-11T12:00:15.224Z,3.90
2019-05-11T12:02:42.441Z,4.15
2019-05-11T12:05:09.748Z,4.50
2019-05-11T12:07:38.872Z,4.78
2019-05-11T12:10:08.123Z,5.08
2019-05-11T12:12:35.465Z,5.22
2019-05-11T12:15:03.316Z,4.22
2019-05-11T12:17:30.554Z,4.70
2019-05-11T12:19:58.598Z,5.58
2019-05-11T12:22:27.992Z,4.85
2019-05-11T12:24:55.393Z,4.60
2019-05-11T12:27:22.660Z,4.03
2019-05-11T12:29:49.897Z,4.70
2019-05-11T12:32:18.942Z,4.70
2019-05-11T12:34:48.188Z,5.83
2019-05-11T12:37:15.278Z,5.37
2019-05-11T12:39:42.521Z,4.45
2019-05-11T12:42:09.805Z,5.37
2019-05-11T12:44:38.767Z,5.60
2019-05-11T12:47:19.118Z,5.28
2019-05-11T12:49:36.498Z,3.85
2019-05-11T12:52:03.820Z,5.10
2019-05-11T12:54:33.937Z,3.75
2019-05-11T12:57:01.432Z,4.70
2019-05-11T12:59:28.639Z,6.85
2019-05-11T13:01:55.930Z,6.25
2019-05-11T13:04:23.199Z,3.87
2019-05-11T13:06:50.448Z,4.40
2019-05-11T13:09:18.405Z,3.72
2019-05-11T13:11:48.177Z,4.62
2019-05-11T13:14:15.623Z,5.50
2019-05-11T13:16:42.858Z,6.87
2019-05-11T13:19:10.133Z,10.78
2019-05-11T13:21:38.237Z,8.85
2019-05-11T13:24:08.288Z,7.75
2019-05-11T13:26:37.471Z,12.20
2019-05-11T13:29:04.465Z,8.20
2019-05-11T13:31:31.882Z,7.75
2019-05-11T13:33:59.351Z,7.95
2019-05-11T13:36:28.675Z,7.70
2019-05-11T13:38:55.966Z,8.55
2019-05-11T13:41:23.644Z,8.60
2019-05-11T13:43:51.897Z,7.70
2019-05-11T13:46:19.326Z,7.00
2019-05-11T13:48:47.637Z,11.30
2019-05-11T13:51:15.192Z,13.70
2019-05-11T13:53:42.393Z,9.05
2019-05-11T13:56:09.976Z,10.72
2019-05-11T13:58:38.136Z,9.03
2019-05-11T14:01:07.883Z,203.58
2019-05-11T14:03:34.746Z,12.68
2019-05-11T14:06:02.053Z,12.53
2019-05-11T14:08:29.328Z,9.00
2019-05-11T14:10:58.024Z,9.38
2019-05-11T14:13:25.459Z,9.60
2019-05-11T14:15:52.806Z,22.98
2019-05-11T14:18:20.125Z,9.98
2019-05-11T14:20:48.267Z,8.75
2019-05-11T14:23:18.163Z,11.22
2019-05-11T14:25:45.228Z,11.53
2019-05-11T14:28:12.519Z,24.15
2019-05-11T14:30:39.783Z,13.88
2019-05-11T14:33:08.865Z,14.23
2019-05-11T14:35:38.292Z,17.25
2019-05-11T14:38:05.198Z,12.33
2019-05-11T14:40:32.469Z,11.93
2019-05-11T14:42:59.755Z,11.38
2019-05-11T14:45:28.816Z,12.33
2019-05-11T14:47:58.271Z,13.68
2019-05-11T14:50:27.946Z,10.85
2019-05-11T14:52:54.622Z,10.60
2019-05-11T14:55:21.951Z,10.63
2019-05-11T14:57:49.180Z,11.43
2019-05-11T15:00:18.617Z,9.98
2019-05-11T15:02:45.569Z,9.60
2019-05-11T15:05:14.604Z,9.68
2019-05-11T15:07:41.850Z,9.70
2019-05-11T15:10:10.291Z,7.45
2019-05-11T15:12:38.015Z,7.75
2019-05-11T15:15:07.988Z,8.43
2019-05-11T15:17:36.016Z,7.28
2019-05-11T15:20:03.803Z,6.80
2019-05-11T15:25:20.725Z,7.17
2019-05-11T15:27:48.929Z,6.45
2019-05-11T15:30:18.197Z,6.37
2019-05-11T15:32:47.885Z,7.08
2019-05-11T15:35:14.701Z,6.53
2019-05-11T15:37:41.932Z,7.28
2019-05-11T15:40:18.966Z,11.43
2019-05-11T15:42:48.335Z,10.72
2019-05-11T15:45:15.677Z,25.17
2019-05-11T15:47:44.046Z,11.80
2019-05-11T15:50:13.296Z,10.05
2019-05-11T15:52:41.816Z,10.00
2019-05-11T15:55:09.133Z,11.40
2019-05-11T15:57:38.200Z,13.55
2019-05-11T16:00:05.409Z,14.10
2019-05-11T16:02:32.718Z,11.75
2019-05-11T16:05:00.107Z,9.90
2019-05-11T16:07:42.412Z,8.70
2019-05-11T16:12:51.648Z,11.33
2019-05-11T16:15:19.505Z,11.57
2019-05-11T16:17:53.588Z,8.88
2019-05-11T16:20:28.119Z,8.90
2019-05-11T16:23:00.046Z,9.55
2019-05-11T16:25:28.137Z,9.20
2019-05-11T16:28:03.920Z,9.78
2019-05-11T16:30:31.844Z,9.05
2019-05-11T16:32:59.494Z,8.30
2019-05-11T16:35:30.343Z,9.10
2019-05-11T16:38:01.240Z,8.83
2019-05-11T16:40:30.240Z,9.05
2019-05-11T16:43:00.218Z,8.60
2019-05-11T16:45:33.150Z,8.35
2019-05-11T16:48:04.529Z,8.33
2019-05-11T16:50:41.486Z,7.80
2019-05-11T16:53:11.178Z,8.53
2019-05-11T16:55:44.436Z,7.53
2019-05-11T16:58:19.651Z,9.05
2019-05-11T17:00:48.969Z,7.72
2019-05-11T17:03:16.811Z,9.33
2019-05-11T17:05:44.981Z,9.90
2019-05-11T17:08:15.286Z,9.80
2019-05-11T17:11:04.283Z,10.37
2019-05-11T17:13:34.136Z,11.60
2019-05-11T17:16:08.694Z,10.32
2019-05-11T17:18:36.419Z,11.08
2019-05-11T17:21:11.277Z,11.40
2019-05-11T17:26:29.730Z,14.50
2019-05-11T17:31:50.701Z,12.33
2019-05-11T17:34:20.687Z,12.50
2019-05-11T17:36:49.895Z,12.50
2019-05-11T17:39:18.823Z,13.10
2019-05-11T17:44:38.814Z,13.65
2019-05-11T17:47:08.294Z,20.05
2019-05-11T17:49:35.157Z,18.65
2019-05-11T17:52:02.741Z,22.25
2019-05-11T17:54:31.220Z,16.00
2019-05-11T17:56:58.647Z,14.47
2019-05-11T17:59:28.073Z,12.03
2019-05-11T18:01:55.046Z,11.83
2019-05-11T18:04:22.254Z,12.35
2019-05-11T18:06:49.536Z,12.28
2019-05-11T18:09:18.678Z,12.55
2019-05-11T18:11:48.118Z,12.00
2019-05-11T18:14:14.907Z,12.05
2019-05-11T18:16:42.245Z,12.73
2019-05-11T18:19:10.465Z,12.75
2019-05-11T18:21:38.732Z,13.83
2019-05-11T18:24:08.881Z,15.40
2019-05-11T18:26:37.608Z,14.38
2019-05-11T18:29:05.728Z,15.15
2019-05-11T18:31:33.009Z,15.63
2019-05-11T18:34:00.315Z,15.78
2019-05-11T18:36:28.931Z,16.75
2019-05-11T18:38:57.244Z,16.30
2019-05-11T18:41:25.495Z,18.17
2019-05-11T18:43:52.833Z,20.10
2019-05-11T18:46:20.145Z,28.23
2019-05-11T18:48:48.638Z,33.35
2019-05-11T18:51:16.495Z,34.05
2019-05-11T18:53:44.692Z,35.40
2019-05-11T18:56:11.946Z,33.53
2019-05-11T18:58:39.215Z,37.88
2019-05-11T19:01:07.570Z,43.38
2019-05-11T19:03:34.906Z,49.73
2019-05-11T19:06:02.147Z,52.62
2019-05-11T19:08:29.471Z,49.05
2019-05-11T19:10:57.977Z,45.43
2019-05-11T19:13:27.910Z,43.92
2019-05-11T19:15:54.961Z,43.70
2019-05-11T19:18:22.400Z,41.42
2019-05-11T19:20:49.643Z,37.58
2019-05-11T19:23:19.094Z,38.45
2019-05-11T19:25:47.861Z,36.10
2019-05-11T19:28:15.175Z,37.38
2019-05-11T19:30:42.562Z,36.38
2019-05-11T19:33:11.303Z,44.38
2019-05-11T19:35:38.689Z,53.00
2019-05-11T19:38:08.499Z,59.80
2019-05-11T19:40:38.356Z,59.35
2019-05-11T19:43:05.203Z,62.62
2019-05-11T19:45:34.386Z,62.80
2019-05-11T19:48:01.659Z,59.18
2019-05-11T19:50:29.365Z,54.23
2019-05-11T19:52:57.991Z,51.73
2019-05-11T19:55:28.563Z,48.03
2019-05-11T19:57:56.141Z,43.50
2019-05-11T20:00:23.420Z,42.33
2019-05-11T20:02:50.776Z,41.85
2019-05-11T20:05:19.189Z,42.00
2019-05-11T20:07:48.729Z,40.33
2019-05-11T20:10:15.542Z,39.83
2019-05-11T20:12:43.827Z,39.40
2019-05-11T20:15:11.249Z,38.10
2019-05-11T20:17:39.305Z,37.63
2019-05-11T20:20:08.882Z,37.25
2019-05-11T20:22:38.841Z,35.80
2019-05-11T20:25:05.719Z,36.33
2019-05-11T20:27:33.025Z,38.17
2019-05-11T20:30:00.272Z,37.85
2019-05-11T20:32:28.511Z,36.28
2019-05-11T20:34:57.855Z,34.88
2019-05-11T20:37:24.981Z,31.80
2019-05-11T20:39:52.353Z,29.98
2019-05-11T20:42:21.619Z,27.42
2019-05-11T20:44:48.858Z,28.00
2019-05-11T20:47:17.847Z,27.58
2019-05-11T20:49:45.241Z,28.60
2019-05-11T20:52:12.460Z,28.40
2019-05-11T20:54:39.709Z,28.35
2019-05-11T20:57:09.003Z,27.22
2019-05-11T20:59:38.158Z,26.70
2019-05-11T21:02:05.769Z,26.87
2019-05-11T21:04:33.081Z,28.90
2019-05-11T21:07:00.312Z,29.67
2019-05-11T21:09:28.923Z,30.65
2019-05-11T21:11:58.626Z,30.55
2019-05-11T21:14:25.469Z,30.32
2019-05-11T21:16:52.716Z,32.00
2019-05-11T21:19:23.100Z,30.68
2019-05-11T21:22:08.889Z,41.00
2019-05-11T21:27:50.727Z,38.55
2019-05-11T21:30:29.307Z,38.13
2019-05-11T21:38:52.024Z,27.58
2019-05-11T21:41:30.616Z,25.48
2019-05-11T21:44:01.384Z,24.85
2019-05-11T21:46:30.367Z,24.35
2019-05-11T21:49:01.509Z,24.80
2019-05-11T21:51:31.638Z,23.95
2019-05-11T21:53:59.126Z,24.95
2019-05-11T21:56:31.189Z,25.72
2019-05-11T21:59:07.782Z,27.58
2019-05-11T22:04:41.929Z,27.65
2019-05-11T22:07:28.623Z,26.00
2019-05-11T22:10:03.125Z,26.23
2019-05-11T22:12:39.846Z,27.45
2019-05-11T22:15:14.993Z,26.97
2019-05-11T22:17:48.528Z,27.82
2019-05-11T22:20:20.345Z,29.57
2019-05-11T22:23:02.924Z,28.03
2019-05-11T22:25:50.654Z,28.23
2019-05-11T22:28:31.964Z,28.90
2019-05-11T22:31:23.478Z,28.12
2019-05-11T22:36:48.525Z,28.90
2019-05-11T22:39:20.825Z,30.63
2019-05-11T22:41:54.965Z,28.75
2019-05-11T22:44:35.676Z,27.93
2019-05-11T22:47:20.601Z,28.40
2019-05-11T22:49:58.283Z,26.20
2019-05-11T22:52:50.752Z,24.55
2019-05-11T22:55:23.318Z,23.70
2019-05-11T22:58:02.299Z,24.35
2019-05-11T23:00:42.623Z,23.07
2019-05-11T23:03:22.875Z,26.63
2019-05-11T23:05:53.634Z,25.43
2019-05-11T23:08:27.282Z,24.98
2019-05-11T23:10:59.233Z,24.77
2019-05-11T23:13:29.515Z,26.02
2019-05-11T23:16:04.510Z,20.57
2019-05-11T23:18:35.718Z,27.60
2019-05-11T23:21:03.144Z,30.00
2019-05-11T23:23:37.031Z,29.48
2019-05-11T23:26:11.146Z,29.00
2019-05-11T23:28:42.840Z,29.70
2019-05-11T23:31:14.200Z,29.45
2019-05-11T23:33:43.771Z,29.12
2019-05-11T23:36:18.281Z,28.87
2019-05-11T23:38:48.928Z,29.65
2019-05-11T23:41:24.549Z,29.80
2019-05-11T23:43:54.319Z,28.50
2019-05-11T23:46:31.544Z,26.77
2019-05-11T23:49:10.626Z,26.35
2019-05-11T23:51:38.664Z,24.90
2019-05-11T23:54:18.573Z,25.15
2019-05-11T23:56:53.761Z,23.57
2019-05-11T23:59:23.151Z,25.40
